Time;durP1;ratioP1;P1;durP2;ratioP2;P2;SDS_P1;SDS_P2;PMS_P1;PMS_P2;Temp;Humidity;BMP_temperature;BMP_pressure;BME280_temperature;BME280_humidity;BME280_pressure;Samples;Min_cycle;Max_cycle;Signal;HPM_P1;HPM_P2
2022/02/14 00:00:06;;;;;;;42.40;18.30;;;;;;;-0.35;60.41;99085.27;2282289;78;20914;-82
2022/02/14 00:03:09;;;;;;;43.50;20.33;;;;;;;-0.73;61.04;99096.23;2261884;78;20935;-83
2022/02/14 00:06:09;;;;;;;46.60;19.93;;;;;;;-1.07;61.75;99089.05;2282379;78;20914;-82
2022/02/14 00:09:10;;;;;;;45.43;20.23;;;;;;;-1.36;62.61;99088.53;2281846;78;21368;-82
2022/02/14 00:12:11;;;;;;;45.53;18.73;;;;;;;-1.66;63.03;99082.39;2282448;78;21350;-83
2022/02/14 00:15:11;;;;;;;50.13;20.00;;;;;;;-1.83;63.33;99080.40;2281407;78;20970;-83
2022/02/14 00:18:12;;;;;;;47.87;18.40;;;;;;;-1.99;63.76;99081.48;2281506;78;20983;-82
2022/02/14 00:21:12;;;;;;;315.87;167.20;;;;;;;-2.12;64.09;99078.92;2259169;76;21050;-84
2022/02/14 00:24:13;;;;;;;71.17;33.10;;;;;;;1.43;88.41;99070.22;2250281;78;20968;-82
2022/02/14 00:27:13;;;;;;;56.17;24.87;;;;;;;4.05;65.23;99067.84;2249991;78;20916;-83
2022/02/14 00:30:14;;;;;;;52.07;22.47;;;;;;;2.88;60.15;99074.33;2249918;79;21264;-83
2022/02/14 00:33:14;;;;;;;51.83;21.57;;;;;;;1.70;58.95;99066.47;2250108;78;20900;-83
2022/02/14 00:36:15;;;;;;;49.10;20.90;;;;;;;0.84;59.01;99069.24;2249457;79;20948;-82
2022/02/14 00:39:16;;;;;;;48.00;20.40;;;;;;;0.15;59.37;99078.31;2248541;79;20991;-82
2022/02/14 00:42:16;;;;;;;51.07;21.93;;;;;;;-0.37;59.95;99077.88;2249073;79;20928;-82
2022/02/14 00:45:16;;;;;;;51.27;21.30;;;;;;;-0.78;60.59;99070.33;2248633;79;20967;-81
2022/02/14 00:48:17;;;;;;;47.87;20.40;;;;;;;-1.16;61.45;99069.66;2249129;79;20889;-81
2022/02/14 00:51:18;;;;;;;49.40;21.70;;;;;;;-1.45;62.11;99071.33;2249382;78;21320;-82
2022/02/14 00:54:19;;;;;;;50.93;21.80;;;;;;;-1.70;62.49;99068.02;2249172;79;20971;-82
2022/02/14 00:57:20;;;;;;;46.27;20.77;;;;;;;-1.88;62.82;99060.03;2249143;79;20960;-82
2022/02/14 01:00:20;;;;;;;71.83;31.60;;;;;;;-2.04;63.23;99061.13;2249902;79;21284;-84
2022/02/14 01:03:20;;;;;;;62.73;28.73;;;;;;;1.48;95.76;99034.04;2249652;79;21315;-80
2022/02/14 01:06:25;;;;;;;54.73;24.90;;;;;;;4.32;68.76;99032.30;2248126;79;21062;-81
2022/02/14 01:09:24;;;;;;;145.97;31.70;;;;;;;2.91;60.41;99033.63;2248062;79;21106;-82
2022/02/14 01:12:26;;;;;;;69.00;25.73;;;;;;;1.55;58.81;99036.11;2249204;78;20937;-81
2022/02/14 01:15:27;;;;;;;62.00;24.43;;;;;;;0.54;58.80;99042.39;2249101;78;21283;-81
2022/02/14 01:18:27;;;;;;;57.37;23.40;;;;;;;-0.23;59.25;99037.63;2249019;79;20940;-81
2022/02/14 01:21:28;;;;;;;51.93;25.53;;;;;;;-0.78;60.14;99024.19;2272433;77;20982;-81
2022/02/14 01:24:28;;;;;;;60.23;24.97;;;;;;;-1.14;60.47;99032.22;2281442;78;21317;-81
2022/02/14 01:27:29;;;;;;;68.10;26.03;;;;;;;-1.49;61.19;99035.19;2281416;78;21024;-81
2022/02/14 01:30:29;;;;;;;60.00;27.03;;;;;;;-1.75;61.72;99030.59;2279758;78;21016;-81
2022/02/14 01:33:30;;;;;;;63.77;25.30;;;;;;;-1.96;62.22;99021.56;2279493;78;20973;-81
2022/02/14 01:36:30;;;;;;;65.63;25.30;;;;;;;-2.11;62.67;99022.76;2280714;78;20958;-81
2022/02/14 01:39:31;;;;;;;67.27;26.03;;;;;;;-2.27;62.94;99018.73;2281090;78;21001;-81
2022/02/14 01:42:32;;;;;;;59.83;25.03;;;;;;;-2.43;63.18;99024.52;2281266;78;20923;-81
2022/02/14 01:45:33;;;;;;;56.30;23.93;;;;;;;-2.54;63.63;99022.05;2281437;78;20957;-81
2022/02/14 01:48:33;;;;;;;66.13;25.73;;;;;;;-2.65;63.97;99017.09;2281418;78;20922;-81
2022/02/14 01:51:34;;;;;;;67.43;26.10;;;;;;;-2.74;64.44;99012.66;2281279;78;21290;-81
2022/02/14 01:54:34;;;;;;;58.97;25.27;;;;;;;-2.81;64.63;99006.64;2281364;78;20950;-81
2022/02/14 01:57:35;;;;;;;68.33;27.20;;;;;;;-2.91;64.90;99014.09;2281124;78;21028;-81
2022/02/14 02:00:37;;;;;;;66.47;26.83;;;;;;;-2.97;65.12;99009.85;2280671;78;20992;-82
2022/02/14 02:03:37;;;;;;;87.80;37.80;;;;;;;-3.00;65.27;99007.48;2280504;78;21010;-82
2022/02/14 02:06:38;;;;;;;320.47;179.50;;;;;;;-2.71;81.73;98996.64;2281565;78;20925;-82
2022/02/14 02:09:38;;;;;;;111.03;54.47;;;;;;;2.31;90.22;98979.33;2282139;78;21020;-82
2022/02/14 02:12:39;;;;;;;77.80;35.97;;;;;;;5.61;66.30;98960.76;2281617;78;20883;-82
2022/02/14 02:15:39;;;;;;;89.03;38.17;;;;;;;4.29;57.88;98964.99;2281597;78;20954;-81
2022/02/14 02:18:40;;;;;;;69.80;32.73;;;;;;;2.58;56.45;98974.55;2281677;78;20941;-82
2022/02/14 02:21:40;;;;;;;74.47;35.03;;;;;;;1.29;56.71;98979.50;2258051;78;20956;-82
2022/02/14 02:24:41;;;;;;;73.37;32.00;;;;;;;0.34;57.65;98981.37;2249574;79;20916;-81
2022/02/14 02:27:42;;;;;;;76.83;34.20;;;;;;;-0.37;58.47;98984.27;2249341;79;20904;-81
2022/02/14 02:30:42;;;;;;;73.97;34.40;;;;;;;-0.91;59.31;98978.10;2249403;79;20943;-81
2022/02/14 02:33:43;;;;;;;66.77;29.53;;;;;;;-1.42;60.13;98979.34;2249379;79;20920;-81
2022/02/14 02:36:43;;;;;;;63.13;28.10;;;;;;;-1.83;61.08;98984.84;2249434;79;20983;-82
2022/02/14 02:39:44;;;;;;;60.17;27.47;;;;;;;-2.18;61.74;98978.40;2249430;79;20990;-81
2022/02/14 02:42:44;;;;;;;64.00;26.00;;;;;;;-2.47;62.42;98979.49;2249405;79;20983;-81
2022/02/14 02:45:45;;;;;;;61.47;25.47;;;;;;;-2.70;63.34;98976.30;2248711;79;20928;-81
2022/02/14 02:48:45;;;;;;;65.10;26.07;;;;;;;-2.84;63.95;98971.95;2249432;79;21350;-81
2022/02/14 02:51:46;;;;;;;61.97;26.80;;;;;;;-3.00;64.49;98967.90;2249214;78;20963;-81
2022/02/14 02:54:46;;;;;;;160.33;33.60;;;;;;;-3.09;64.88;98968.17;2247288;79;20960;-81
2022/02/14 02:57:47;;;;;;;70.43;27.37;;;;;;;-3.15;65.19;98969.04;2248001;78;20967;-80
2022/02/14 03:00:47;;;;;;;68.30;26.23;;;;;;;-3.21;65.50;98970.79;2249217;79;20990;-80
2022/02/14 03:03:49;;;;;;;64.23;27.03;;;;;;;-3.23;65.75;98968.53;2249246;79;20913;-80
2022/02/14 03:06:49;;;;;;;60.87;25.67;;;;;;;-3.26;66.06;98968.32;2249060;79;21294;-81
2022/02/14 03:09:50;;;;;;;54.30;24.93;;;;;;;-3.27;65.99;98962.72;2249108;78;20976;-81
2022/02/14 03:12:51;;;;;;;59.40;24.83;;;;;;;-3.31;66.17;98963.69;2249221;79;20912;-81
2022/02/14 03:15:51;;;;;;;240.57;39.93;;;;;;;-3.34;66.51;98963.48;2248237;78;20995;-81
2022/02/14 03:18:52;;;;;;;177.60;34.30;;;;;;;-3.40;66.48;98960.52;2248545;79;21382;-80
2022/02/14 03:21:52;;;;;;;76.63;25.13;;;;;;;-3.44;66.78;98962.36;2271771;78;20958;-81
2022/02/14 03:24:53;;;;;;;64.87;26.53;;;;;;;-3.49;67.05;98952.20;2281656;78;20998;-81
2022/02/14 03:27:54;;;;;;;55.03;24.47;;;;;;;-3.54;67.24;98960.43;2281328;78;20954;-82
2022/02/14 03:30:54;;;;;;;118.50;28.23;;;;;;;-3.60;67.44;98958.73;2281502;78;20933;-79
2022/02/14 03:33:55;;;;;;;57.53;24.90;;;;;;;-3.62;67.62;98961.57;2281776;78;20935;-81
2022/02/14 03:36:55;;;;;;;55.83;23.80;;;;;;;-3.63;67.93;98963.63;2281632;78;20922;-81
2022/02/14 03:39:56;;;;;;;53.73;23.43;;;;;;;-3.64;67.96;98961.86;2281598;78;21009;-81
2022/02/14 03:42:57;;;;;;;108.40;28.43;;;;;;;-3.72;68.01;98966.82;2281710;78;20886;-81
2022/02/14 03:45:57;;;;;;;88.67;24.13;;;;;;;-3.80;68.15;98955.20;2281646;78;20910;-81
2022/02/14 03:48:58;;;;;;;58.23;23.77;;;;;;;-3.81;68.56;98960.20;2282011;78;21089;-82
2022/02/14 03:51:58;;;;;;;54.03;22.90;;;;;;;-3.81;68.80;98952.55;2282031;78;21271;-81
2022/02/14 03:54:59;;;;;;;52.60;22.47;;;;;;;-3.81;68.93;98955.10;2282189;78;21397;-82
2022/02/14 03:57:59;;;;;;;59.43;23.57;;;;;;;-3.82;69.04;98945.67;2282022;78;20953;-82
2022/02/14 04:01:00;;;;;;;52.90;23.03;;;;;;;-3.80;69.06;98936.47;2282264;78;20906;-82
2022/02/14 04:04:00;;;;;;;51.13;21.87;;;;;;;-3.75;69.15;98938.55;2281801;78;20927;-81
2022/02/14 04:07:00;;;;;;;52.37;22.40;;;;;;;-3.70;69.11;98936.31;2281793;78;20903;-82
2022/02/14 04:10:01;;;;;;;53.10;22.63;;;;;;;-3.64;69.06;98932.91;2281289;78;21958;-82
2022/02/14 04:13:01;;;;;;;47.10;21.30;;;;;;;-3.63;68.93;98935.56;2281115;78;21337;-81
2022/02/14 04:16:02;;;;;;;50.37;22.43;;;;;;;-3.58;68.93;98923.12;2281452;78;21280;-80
2022/02/14 04:19:02;;;;;;;44.53;21.40;;;;;;;-3.55;68.98;98925.48;2280332;78;20941;-80
2022/02/14 04:22:03;;;;;;;70.97;31.40;;;;;;;-3.48;68.86;98917.85;2258711;78;20992;-80
2022/02/14 04:25:03;;;;;;;49.20;21.90;;;;;;;-3.48;68.75;98911.48;2248280;78;20935;-83
2022/02/14 04:28:04;;;;;;;52.17;21.93;;;;;;;-3.44;68.83;98913.88;2248258;78;21397;-81
2022/02/14 04:31:04;;;;;;;51.13;21.93;;;;;;;-3.51;68.74;98913.82;2248224;79;21292;-81
2022/02/14 04:34:05;;;;;;;48.00;21.20;;;;;;;-3.51;68.64;98912.55;2248336;78;20952;-82
2022/02/14 04:37:05;;;;;;;50.70;20.10;;;;;;;-3.53;68.63;98914.11;2246895;79;21010;-81
2022/02/14 04:40:06;;;;;;;42.30;20.30;;;;;;;-3.58;68.71;98908.69;2246820;79;21043;-83
2022/02/14 04:43:06;;;;;;;47.13;20.37;;;;;;;-3.56;68.75;98915.17;2247136;78;20944;-81
2022/02/14 04:46:07;;;;;;;50.00;19.67;;;;;;;-3.56;68.47;98916.06;2247183;78;20928;-81
2022/02/14 04:49:07;;;;;;;48.10;21.37;;;;;;;-3.61;68.81;98918.69;2246716;79;20962;-81
2022/02/14 04:52:08;;;;;;;40.93;19.80;;;;;;;-3.61;68.99;98915.26;2247174;79;20993;-82
2022/02/14 04:55:08;;;;;;;54.77;21.77;;;;;;;-3.65;69.08;98914.55;2246039;79;20967;-83
2022/02/14 04:58:09;;;;;;;47.57;20.80;;;;;;;-3.68;69.29;98914.34;2245032;78;21429;-82
2022/02/14 05:01:10;;;;;;;41.70;18.87;;;;;;;-3.71;69.25;98915.41;2246125;78;20947;-81
2022/02/14 05:04:10;;;;;;;42.50;19.97;;;;;;;-3.72;69.35;98910.70;2246265;78;20974;-82
2022/02/14 05:07:14;;;;;;;43.77;20.30;;;;;;;-3.71;69.74;98912.86;2225077;79;21406;-82
2022/02/14 05:10:14;;;;;;;44.13;18.03;;;;;;;-3.70;69.79;98906.98;2247522;78;20983;-81
2022/02/14 05:13:15;;;;;;;43.27;19.90;;;;;;;-3.65;69.87;98909.45;2248835;78;20924;-83
2022/02/14 05:16:16;;;;;;;38.13;17.67;;;;;;;-3.60;70.00;98913.20;2247264;78;21031;-82
2022/02/14 05:19:16;;;;;;;94.60;22.73;;;;;;;-3.55;69.96;98909.30;2246812;79;21662;-83
2022/02/14 05:22:17;;;;;;;70.97;20.20;;;;;;;-3.54;69.96;98907.23;2274382;78;21490;-82
2022/02/14 05:25:17;;;;;;;49.67;18.57;;;;;;;-3.51;69.94;98909.99;2288633;78;21337;-81
2022/02/14 05:28:18;;;;;;;59.57;26.00;;;;;;;-3.50;70.03;98906.66;2289481;78;20960;-80
2022/02/14 05:31:18;;;;;;;37.90;18.30;;;;;;;-3.44;70.08;98904.55;2289578;78;20947;-81
2022/02/14 05:34:19;;;;;;;38.50;16.60;;;;;;;-3.43;70.10;98900.33;2287868;78;21370;-83
2022/02/14 05:37:19;;;;;;;38.07;17.73;;;;;;;-3.42;70.20;98903.37;2288589;78;21412;-83
2022/02/14 05:40:20;;;;;;;35.47;16.80;;;;;;;-3.44;70.26;98893.06;2287781;78;21026;-83
2022/02/14 05:43:20;;;;;;;40.97;18.77;;;;;;;-3.43;70.35;98895.23;2288408;78;20991;-82
2022/02/14 05:46:21;;;;;;;36.23;17.13;;;;;;;-3.39;70.53;98902.31;2288738;78;20951;-80
2022/02/14 05:49:21;;;;;;;45.67;18.57;;;;;;;-3.36;70.58;98903.39;2290078;78;20920;-81
2022/02/14 05:52:22;;;;;;;48.50;24.13;;;;;;;-3.35;70.46;98905.16;2290366;78;20901;-81
2022/02/14 05:55:22;;;;;;;40.40;20.70;;;;;;;-3.31;70.78;98900.75;2289107;78;21393;-82
2022/02/14 05:58:23;;;;;;;39.77;18.03;;;;;;;-3.27;70.75;98898.91;2289655;78;21031;-81
2022/02/14 06:01:23;;;;;;;76.27;18.40;;;;;;;-3.22;70.72;98903.91;2289700;78;20924;-81
2022/02/14 06:04:24;;;;;;;42.73;17.87;;;;;;;-3.22;70.62;98906.47;2288760;77;21019;-80
2022/02/14 06:07:24;;;;;;;50.07;17.80;;;;;;;-3.18;70.75;98910.11;2288576;78;20946;-80
2022/02/14 06:10:24;;;;;;;33.03;17.63;;;;;;;-3.13;70.55;98906.59;2288082;78;21038;-77
2022/02/14 06:13:25;;;;;;;69.47;18.73;;;;;;;-3.12;70.61;98903.25;2288410;78;20963;-83
2022/02/14 06:16:25;;;;;;;47.00;17.60;;;;;;;-3.09;70.90;98899.22;2289348;78;21030;-82
2022/02/14 06:19:26;;;;;;;30.07;15.90;;;;;;;-3.03;70.72;98903.84;2289435;78;21346;-83
2022/02/14 06:22:26;;;;;;;35.83;18.20;;;;;;;-2.96;70.80;98899.63;2285353;78;21021;-80
2022/02/14 06:25:27;;;;;;;42.77;17.83;;;;;;;-2.92;70.81;98901.20;2280267;78;20985;-80
2022/02/14 06:28:27;;;;;;;30.50;15.83;;;;;;;-2.89;70.71;98903.96;2278769;78;21024;-81
2022/02/14 06:31:28;;;;;;;31.60;17.27;;;;;;;-2.88;70.72;98889.52;2279484;78;20961;-79
2022/02/14 06:34:28;;;;;;;32.00;16.70;;;;;;;-2.81;70.79;98887.85;2279465;78;20923;-80
2022/02/14 06:37:29;;;;;;;42.03;16.00;;;;;;;-2.77;70.77;98887.66;2278891;78;20958;-80
2022/02/14 06:40:29;;;;;;;62.73;17.33;;;;;;;-2.69;70.87;98886.08;2278715;78;21301;-79
2022/02/14 06:43:31;;;;;;;30.70;16.83;;;;;;;-2.59;70.97;98887.19;2278119;78;21033;-80
2022/02/14 06:46:32;;;;;;;40.93;16.30;;;;;;;-2.46;70.91;98876.46;2278287;78;21384;-80
2022/02/14 06:49:32;;;;;;;38.63;18.90;;;;;;;-2.35;70.93;98881.85;2278086;78;21328;-80
2022/02/14 06:52:33;;;;;;;93.30;23.60;;;;;;;-2.18;70.89;98881.62;2278357;78;21407;-78
2022/02/14 06:55:33;;;;;;;48.90;19.40;;;;;;;-2.06;70.74;98875.58;2279821;78;20949;-79
2022/02/14 06:58:34;;;;;;;41.20;17.70;;;;;;;-1.88;70.61;98881.33;2278412;78;21020;-78
2022/02/14 07:01:34;;;;;;;167.43;27.00;;;;;;;-1.74;70.40;98879.20;2278274;78;21177;-80
2022/02/14 07:04:35;;;;;;;42.97;18.63;;;;;;;-1.55;70.35;98878.27;2278032;78;21032;-79
2022/02/14 07:07:35;;;;;;;83.60;20.17;;;;;;;-1.40;70.10;98879.17;2279148;78;21008;-78
2022/02/14 07:10:36;;;;;;;37.27;18.67;;;;;;;-1.27;69.89;98880.77;2277611;78;21052;-78
2022/02/14 07:13:36;;;;;;;35.17;18.60;;;;;;;-1.12;69.80;98876.94;2276084;78;20930;-78
2022/02/14 07:16:37;;;;;;;35.23;18.40;;;;;;;-0.98;69.61;98874.77;2269981;77;20932;-78
2022/02/14 07:19:38;;;;;;;35.37;19.67;;;;;;;-0.79;69.54;98882.73;1920679;76;10000522;-78
2022/02/14 07:22:39;;;;;;;33.27;19.27;;;;;;;-0.63;69.11;98888.32;2185293;81;21299;-78
2022/02/14 07:25:40;;;;;;;36.43;19.67;;;;;;;-0.45;68.81;98873.96;2177429;81;20901;-80
2022/02/14 07:28:42;;;;;;;30.30;18.60;;;;;;;-0.24;68.58;98871.69;2174402;81;20903;-79
2022/02/14 07:31:43;;;;;;;39.47;19.93;;;;;;;-0.05;68.13;98869.30;2165839;81;20981;-80
2022/02/14 07:34:43;;;;;;;36.97;19.00;;;;;;;0.10;67.99;98859.00;2153993;83;21896;-81
2022/02/14 07:37:44;;;;;;;33.70;19.07;;;;;;;0.28;67.17;98856.52;2154588;83;20996;-80
2022/02/14 07:40:45;;;;;;;31.97;19.27;;;;;;;0.44;67.32;98856.50;2155281;83;21083;-78
2022/02/14 07:43:46;;;;;;;34.93;20.43;;;;;;;0.65;66.98;98859.28;2155454;83;20941;-80
2022/02/14 07:46:51;;;;;;;70.10;22.83;;;;;;;0.84;66.44;98859.80;2164876;82;21040;-80
2022/02/14 07:49:51;;;;;;;33.23;19.47;;;;;;;1.00;66.45;98861.48;2174747;82;21128;-80
2022/02/14 07:52:52;;;;;;;38.17;21.67;;;;;;;1.13;65.89;98854.45;2175097;82;21352;-80
2022/02/14 07:55:52;;;;;;;38.23;21.30;;;;;;;1.26;65.55;98856.80;2175343;82;20968;-80
2022/02/14 07:58:53;;;;;;;46.10;22.80;;;;;;;1.40;65.33;98856.18;2174885;82;21036;-79
2022/02/14 08:01:54;;;;;;;55.07;21.37;;;;;;;1.50;65.12;98844.23;2160509;82;21017;-79
2022/02/14 08:04:55;;;;;;;35.43;22.63;;;;;;;1.67;65.15;98847.99;2153444;82;20981;-80
2022/02/14 08:07:56;;;;;;;41.43;22.20;;;;;;;1.75;64.81;98847.98;2156776;82;20988;-80
2022/02/14 08:10:57;;;;;;;46.53;22.33;;;;;;;1.83;64.67;98851.38;2156370;82;21078;-80
2022/02/14 08:13:57;;;;;;;35.37;21.43;;;;;;;2.00;64.21;98846.12;2154479;82;20948;-80
2022/02/14 08:16:58;;;;;;;36.07;21.30;;;;;;;2.11;64.09;98844.91;2167588;82;21032;-81
2022/02/14 08:20:00;;;;;;;49.97;22.77;;;;;;;2.24;64.01;98845.93;2175424;82;20956;-81
2022/02/14 08:23:02;;;;;;;1113.43;93.83;;;;;;;2.40;64.23;98844.50;2172443;80;21025;-79
2022/02/14 08:26:03;;;;;;;52.37;22.87;;;;;;;2.62;63.96;98837.73;2167063;82;21081;-79
2022/02/14 08:32:06;;;;;;;141.30;24.80;;;;;;;2.91;63.45;98838.55;2141655;82;21843;-82
2022/02/14 08:35:07;;;;;;;41.97;20.07;;;;;;;3.09;63.01;98831.98;2164170;81;20989;-80
2022/02/14 08:38:07;;;;;;;39.90;21.43;;;;;;;3.24;61.80;98836.88;2151174;83;21508;-81
2022/02/14 08:41:08;;;;;;;28.70;18.30;;;;;;;3.31;61.44;98831.14;2151732;83;21022;-80
2022/02/14 08:44:12;;;;;;;43.50;19.63;;;;;;;3.49;61.88;98834.48;2151985;83;21010;-78
2022/02/14 08:47:11;;;;;;;63.67;20.97;;;;;;;3.62;61.44;98831.56;2151881;83;21058;-82
2022/02/14 08:50:11;;;;;;;45.83;19.33;;;;;;;3.81;61.43;98835.73;2151496;83;21034;-81
2022/02/14 08:53:12;;;;;;;77.27;20.23;;;;;;;3.99;60.23;98830.38;2151426;83;21030;-80
2022/02/14 08:56:13;;;;;;;39.67;19.43;;;;;;;4.06;59.78;98831.08;2150983;83;21026;-81
2022/02/14 08:59:19;;;;;;;59.50;20.30;;;;;;;4.17;58.87;98827.18;2151161;83;21027;-82
2022/02/14 09:02:16;;;;;;;30.30;18.67;;;;;;;4.26;59.02;98826.63;2150437;83;21046;-82
2022/02/14 09:05:16;;;;;;;32.10;19.13;;;;;;;4.31;58.79;98828.56;2150935;83;21021;-81
2022/02/14 09:08:17;;;;;;;39.97;18.70;;;;;;;4.37;58.50;98825.34;2151860;83;21009;-81
2022/02/14 09:11:18;;;;;;;29.30;18.83;;;;;;;4.46;58.41;98823.09;2152766;83;21034;-81
2022/02/14 09:14:18;;;;;;;34.67;19.93;;;;;;;4.58;58.78;98814.47;2152260;83;21410;-80
2022/02/14 09:17:20;;;;;;;32.47;18.57;;;;;;;4.80;58.88;98819.97;2123672;83;20991;-82
2022/02/14 09:20:24;;;;;;;29.13;18.57;;;;;;;4.99;58.07;98820.17;2151411;83;21046;-80
2022/02/14 09:23:24;;;;;;;747.13;54.23;;;;;;;5.12;58.31;98815.45;2151907;82;21109;-81
2022/02/14 09:26:24;;;;;;;37.33;18.37;;;;;;;5.26;57.89;98819.81;2155016;82;20994;-81
2022/02/14 09:29:25;;;;;;;28.30;18.93;;;;;;;5.41;57.40;98807.77;2154431;83;21463;-82
2022/02/14 09:32:26;;;;;;;28.60;18.00;;;;;;;5.48;57.45;98807.55;2154706;83;21397;-81
2022/02/14 09:35:27;;;;;;;29.80;18.57;;;;;;;5.52;55.75;98805.52;2155139;82;21006;-80
2022/02/14 09:38:28;;;;;;;27.70;17.83;;;;;;;5.54;56.66;98802.56;2154499;83;21501;-83
2022/02/14 09:41:28;;;;;;;35.20;19.07;;;;;;;5.61;56.01;98802.80;2154451;83;21065;-81
2022/02/14 09:44:29;;;;;;;33.00;18.53;;;;;;;5.69;56.42;98795.26;2154664;82;20975;-83
2022/02/14 09:47:29;;;;;;;30.20;16.90;;;;;;;5.85;56.47;98797.47;2154787;83;21002;-82
2022/02/14 09:50:30;;;;;;;36.37;16.47;;;;;;;6.02;55.37;98796.28;2156062;82;20963;-83
2022/02/14 09:53:31;;;;;;;34.63;19.03;;;;;;;6.14;55.67;98796.20;2154892;82;20954;-82
2022/02/14 09:56:35;;;;;;;26.40;17.20;;;;;;;6.25;55.66;98789.19;2154463;82;20994;-83
2022/02/14 09:59:34;;;;;;;26.63;17.00;;;;;;;6.44;54.44;98783.22;2154366;83;21430;-84
2022/02/14 10:02:36;;;;;;;32.23;18.17;;;;;;;6.44;54.44;98783.22;2155525;82;21737;-82
2022/02/14 10:05:37;;;;;;;29.30;17.17;;;;;;;6.52;54.17;98784.30;2154551;83;20978;-81
2022/02/14 10:08:37;;;;;;;90.90;21.80;;;;;;;6.61;53.95;98780.66;2154861;82;21046;-82
2022/02/14 10:11:42;;;;;;;34.63;18.00;;;;;;;6.69;54.73;98783.91;2155878;83;21022;-82
2022/02/14 10:14:40;;;;;;;24.97;16.40;;;;;;;6.86;54.79;98779.15;2155522;83;21009;-82
2022/02/14 10:17:41;;;;;;;39.07;17.67;;;;;;;6.95;53.48;98774.64;2155105;82;21030;-83
2022/02/14 10:20:41;;;;;;;33.40;17.80;;;;;;;6.93;53.91;98762.89;2155472;83;20967;-83
2022/02/14 10:23:42;;;;;;;49.17;18.77;;;;;;;7.02;53.52;98759.27;2154667;81;21023;-82
2022/02/14 10:26:43;;;;;;;29.73;18.83;;;;;;;7.15;53.96;98758.26;2154890;82;20978;-82
2022/02/14 10:29:44;;;;;;;30.33;17.10;;;;;;;7.27;53.37;98754.23;2155253;83;21365;-83
2022/02/14 10:32:44;;;;;;;23.90;15.90;;;;;;;7.37;53.10;98751.42;2154992;83;20986;-83
2022/02/14 10:35:45;;;;;;;49.83;17.70;;;;;;;7.42;52.72;98747.22;2155393;82;20967;-81
2022/02/14 10:38:45;;;;;;;30.67;16.83;;;;;;;7.49;53.45;98742.61;2155246;82;20983;-80
2022/02/14 10:41:46;;;;;;;26.93;17.07;;;;;;;7.54;52.50;98729.73;2155266;83;21037;-82
2022/02/14 10:48:10;;;;;;;27.67;16.77;;;;;;;7.58;52.58;98735.45;2154501;83;21030;-80
2022/02/14 10:51:07;;;;;;;31.83;17.50;;;;;;;7.75;52.76;98724.98;2153309;83;21037;-80
2022/02/14 10:54:10;;;;;;;22.63;15.57;;;;;;;7.90;52.40;98723.16;2153814;83;21361;-80
2022/02/14 10:57:10;;;;;;;20.53;14.87;;;;;;;7.98;51.92;98717.70;2155142;82;21013;-80
2022/02/14 11:00:11;;;;;;;23.33;16.30;;;;;;;8.03;51.20;98716.06;2154568;82;21469;-80
2022/02/14 11:03:12;;;;;;;41.03;18.47;;;;;;;8.06;51.64;98712.23;2154174;82;21348;-80
2022/02/14 11:06:12;;;;;;;35.67;17.53;;;;;;;8.14;51.28;98708.05;2154005;83;21341;-79
2022/02/14 11:09:13;;;;;;;29.27;16.03;;;;;;;8.19;50.77;98705.54;2154798;83;20959;-79
2022/02/14 11:12:15;;;;;;;26.93;15.50;;;;;;;8.28;50.70;98705.29;2152937;83;21061;-79
2022/02/14 11:15:15;;;;;;;27.20;15.40;;;;;;;8.36;50.35;98706.77;2154004;82;21043;-78
2022/02/14 11:18:16;;;;;;;21.27;15.10;;;;;;;8.44;49.48;98703.00;2153703;82;21552;-78
2022/02/14 11:21:16;;;;;;;34.20;17.63;;;;;;;8.46;48.97;98702.60;2155630;82;21362;-78
2022/02/14 11:24:17;;;;;;;110.73;18.57;;;;;;;8.49;49.88;98702.66;2155125;81;21019;-80
2022/02/14 11:27:18;;;;;;;22.77;14.17;;;;;;;8.53;49.02;98692.76;2154313;82;20979;-79
2022/02/14 11:30:18;;;;;;;20.17;13.77;;;;;;;8.55;48.30;98700.16;2155626;83;20999;-79
2022/02/14 11:33:22;;;;;;;25.63;15.00;;;;;;;8.54;48.55;98694.08;2154246;83;21464;-80
2022/02/14 11:36:23;;;;;;;35.85;14.10;;;;;;;8.58;48.03;98697.19;2154232;82;21450;-78
2022/02/14 11:39:23;;;;;;;25.50;15.43;;;;;;;8.63;48.47;98692.94;2153367;82;21033;-79
2022/02/14 11:42:24;;;;;;;28.20;15.20;;;;;;;8.71;48.40;98685.30;2153128;83;21089;-79
2022/02/14 11:45:24;;;;;;;23.67;14.87;;;;;;;9.09;50.68;98689.80;2155329;82;20951;-80
2022/02/14 11:48:25;;;;;;;26.63;13.77;;;;;;;9.37;48.93;98683.27;2154391;82;20966;-79
2022/02/14 11:51:25;;;;;;;21.27;13.73;;;;;;;9.34;47.36;98677.14;2158121;81;20984;-80
2022/02/14 11:54:26;;;;;;;30.30;14.17;;;;;;;9.27;47.40;98677.48;2154356;80;20950;-78
2022/02/14 11:57:29;;;;;;;24.80;13.53;;;;;;;9.21;46.64;98680.00;2144464;83;21014;-80
2022/02/14 12:00:29;;;;;;;24.37;15.20;;;;;;;9.14;47.21;98674.25;2145339;83;20985;-78
2022/02/14 12:03:30;;;;;;;34.43;14.47;;;;;;;9.08;47.72;98670.25;2145389;83;20994;-80
2022/02/14 12:06:30;;;;;;;26.73;14.30;;;;;;;9.10;47.26;98664.22;2146620;83;20970;-80
2022/02/14 12:09:31;;;;;;;20.13;14.07;;;;;;;9.08;47.28;98667.22;2146503;83;21243;-81
2022/02/14 12:12:31;;;;;;;43.93;14.43;;;;;;;9.14;47.67;98649.52;2145700;83;21077;-80
2022/02/14 12:21:55;;;;;;;19.67;12.53;;;;;;;9.17;46.07;98652.16;2101850;85;21068;-80
2022/02/14 12:24:56;;;;;;;71.20;16.03;;;;;;;9.14;46.23;98648.20;2145890;83;21013;-81
2022/02/14 12:27:57;;;;;;;20.93;13.67;;;;;;;9.12;47.09;98648.62;2104041;85;21067;-80
2022/02/14 12:30:57;;;;;;;31.57;15.00;;;;;;;9.09;47.00;98646.84;2146751;83;21380;-80
2022/02/14 12:33:58;;;;;;;26.93;14.23;;;;;;;9.08;47.59;98643.79;2145862;83;21033;-82
2022/02/14 12:36:59;;;;;;;36.10;15.70;;;;;;;9.09;46.71;98642.94;2146336;83;20966;-82
2022/02/14 12:40:00;;;;;;;54.47;16.40;;;;;;;9.03;46.75;98639.37;2146400;83;21005;-80
2022/02/14 12:43:01;;;;;;;42.47;15.07;;;;;;;9.00;47.38;98634.12;2102681;85;20982;-80
2022/02/14 12:46:01;;;;;;;24.30;15.30;;;;;;;8.94;47.20;98642.72;2146792;83;21985;-81
2022/02/14 12:49:03;;;;;;;40.43;15.07;;;;;;;8.88;47.69;98630.48;2103731;85;20962;-80
2022/02/14 12:52:04;;;;;;;38.57;15.93;;;;;;;8.88;47.94;98619.19;2145615;83;21221;-80
2022/02/14 12:55:04;;;;;;;38.10;15.80;;;;;;;8.86;47.33;98620.47;2145816;83;21407;-80
2022/02/14 12:58:05;;;;;;;21.50;14.53;;;;;;;8.83;47.40;98618.25;2145589;83;21018;-81
2022/02/14 13:01:05;;;;;;;23.23;15.53;;;;;;;8.79;47.48;98613.42;2145603;83;20977;-80
2022/02/14 13:04:05;;;;;;;23.47;15.70;;;;;;;8.74;47.20;98611.18;2145461;83;20950;-79
2022/02/14 13:07:06;;;;;;;32.40;16.30;;;;;;;8.72;47.70;98610.70;2144620;83;21029;-84
2022/02/14 13:10:06;;;;;;;32.50;15.07;;;;;;;8.70;47.71;98611.98;2144615;83;20970;-81
2022/02/14 13:13:07;;;;;;;27.43;15.27;;;;;;;8.66;47.71;98610.58;2144370;83;21690;-82
2022/02/14 13:16:08;;;;;;;31.40;15.87;;;;;;;8.61;48.11;98604.00;2100880;85;20982;-81
2022/02/14 13:19:08;;;;;;;27.67;15.97;;;;;;;8.56;48.21;98597.84;2144274;83;20942;-79
2022/02/14 13:22:09;;;;;;;43.33;16.70;;;;;;;8.52;48.56;98593.02;2143230;83;21001;-83
2022/02/14 13:25:09;;;;;;;30.60;15.70;;;;;;;8.51;48.96;98590.40;2134979;82;21018;-84
2022/02/14 13:28:09;;;;;;;32.17;14.37;;;;;;;8.50;49.17;98589.52;2127477;83;21010;-81
2022/02/14 13:31:10;;;;;;;25.77;14.90;;;;;;;8.51;48.92;98586.07;2128257;83;21346;-80
2022/02/14 13:34:10;;;;;;;28.10;12.67;;;;;;;8.49;48.99;98581.70;2128211;83;21682;-81
2022/02/14 13:37:11;;;;;;;32.73;17.63;;;;;;;8.50;48.53;98583.45;2128705;83;21006;-81
2022/02/14 13:40:12;;;;;;;24.00;14.77;;;;;;;8.45;48.62;98578.17;2128601;83;20955;-82
2022/02/14 13:43:12;;;;;;;43.77;14.73;;;;;;;8.38;48.20;98573.72;2128433;83;21056;-80
2022/02/14 13:46:15;;;;;;;57.73;16.30;;;;;;;8.52;48.97;98571.34;2128785;83;20943;-81
2022/02/14 13:49:15;;;;;;;26.10;14.03;;;;;;;8.49;49.08;98570.87;2128840;84;21398;-82
2022/02/14 13:52:16;;;;;;;24.93;14.43;;;;;;;8.46;48.91;98562.14;2128430;84;20995;-81
2022/02/14 13:55:17;;;;;;;64.73;15.17;;;;;;;8.44;49.65;98562.54;2128856;83;21009;-77
2022/02/14 13:58:18;;;;;;;21.23;14.20;;;;;;;8.42;49.86;98557.73;2127089;83;21408;-81
2022/02/14 14:01:20;;;;;;;22.03;14.40;;;;;;;8.39;49.62;98555.09;2070859;85;20962;-84
2022/02/14 14:04:22;;;;;;;20.20;13.90;;;;;;;8.35;49.95;98555.47;2070799;85;21484;-81
2022/02/14 14:07:22;;;;;;;39.80;15.47;;;;;;;8.33;50.05;98551.06;2030789;87;20992;-82